sensor_id;sensor_type;location;lat;lon;timestamp;pressure;altitude;pressure_sealevel;temperature;humidity
54900;BME280;40801;41.924;25.562;2022-12-10T00:01:34;99117.78;;;9.59;83.73
54900;BME280;40801;41.924;25.562;2022-12-10T00:04:00;99112.81;;;9.53;84.33
54900;BME280;40801;41.924;25.562;2022-12-10T00:06:28;99114.31;;;9.59;83.65
54900;BME280;40801;41.924;25.562;2022-12-10T00:08:54;99118.88;;;9.58;83.66
54900;BME280;40801;41.924;25.562;2022-12-10T00:11:21;99112.09;;;9.61;83.47
54900;BME280;40801;41.924;25.562;2022-12-10T00:13:48;99109.72;;;9.59;83.36
54900;BME280;40801;41.924;25.562;2022-12-10T00:16:15;99114.50;;;9.49;83.99
54900;BME280;40801;41.924;25.562;2022-12-10T00:18:41;99125.16;;;9.54;84.12
54900;BME280;40801;41.924;25.562;2022-12-10T00:21:13;99112.53;;;9.54;84.00
54900;BME280;40801;41.924;25.562;2022-12-10T00:23:39;99112.59;;;9.63;83.67
54900;BME280;40801;41.924;25.562;2022-12-10T00:26:10;99110.69;;;9.63;83.10
54900;BME280;40801;41.924;25.562;2022-12-10T00:28:36;99107.72;;;9.51;84.00
54900;BME280;40801;41.924;25.562;2022-12-10T00:31:07;99113.19;;;9.60;83.66
54900;BME280;40801;41.924;25.562;2022-12-10T00:33:34;99104.81;;;9.61;83.71
54900;BME280;40801;41.924;25.562;2022-12-10T00:36:09;99098.94;;;9.59;83.75
54900;BME280;40801;41.924;25.562;2022-12-10T00:38:35;99097.84;;;9.60;84.19
54900;BME280;40801;41.924;25.562;2022-12-10T00:41:00;99107.69;;;9.65;84.00
54900;BME280;40801;41.924;25.562;2022-12-10T00:43:27;99099.69;;;9.74;83.57
54900;BME280;40801;41.924;25.562;2022-12-10T00:45:53;99094.66;;;9.58;84.24
54900;BME280;40801;41.924;25.562;2022-12-10T00:48:19;99099.44;;;9.61;84.18
54900;BME280;40801;41.924;25.562;2022-12-10T00:50:57;99099.63;;;9.65;83.76
54900;BME280;40801;41.924;25.562;2022-12-10T00:53:24;99100.94;;;9.54;85.12
54900;BME280;40801;41.924;25.562;2022-12-10T00:55:50;99098.94;;;9.59;85.19
54900;BME280;40801;41.924;25.562;2022-12-10T00:58:15;99086.16;;;9.65;84.43
54900;BME280;40801;41.924;25.562;2022-12-10T01:00:40;99085.66;;;9.63;84.30
54900;BME280;40801;41.924;25.562;2022-12-10T01:03:06;99107.56;;;9.70;84.03
54900;BME280;40801;41.924;25.562;2022-12-10T01:05:31;99101.56;;;9.73;83.61
54900;BME280;40801;41.924;25.562;2022-12-10T01:07:57;99091.06;;;9.63;84.59
54900;BME280;40801;41.924;25.562;2022-12-10T01:10:22;99093.94;;;9.67;84.89
54900;BME280;40801;41.924;25.562;2022-12-10T01:12:47;99090.16;;;9.54;85.28
54900;BME280;40801;41.924;25.562;2022-12-10T01:15:13;99093.00;;;9.71;84.06
54900;BME280;40801;41.924;25.562;2022-12-10T01:17:38;99087.94;;;9.70;83.92
54900;BME280;40801;41.924;25.562;2022-12-10T01:20:04;99089.47;;;9.62;84.48
54900;BME280;40801;41.924;25.562;2022-12-10T01:22:29;99093.69;;;9.54;85.25
54900;BME280;40801;41.924;25.562;2022-12-10T01:24:55;99080.41;;;9.58;85.42
54900;BME280;40801;41.924;25.562;2022-12-10T01:27:20;99083.47;;;9.65;84.50
54900;BME280;40801;41.924;25.562;2022-12-10T01:29:46;99086.16;;;9.65;84.34
54900;BME280;40801;41.924;25.562;2022-12-10T01:32:11;99089.03;;;9.69;84.16
54900;BME280;40801;41.924;25.562;2022-12-10T01:34:36;99077.59;;;9.63;84.76
54900;BME280;40801;41.924;25.562;2022-12-10T01:37:02;99072.88;;;9.69;84.50
54900;BME280;40801;41.924;25.562;2022-12-10T01:39:27;99071.94;;;9.73;84.17
54900;BME280;40801;41.924;25.562;2022-12-10T01:41:58;99075.75;;;9.72;84.38
54900;BME280;40801;41.924;25.562;2022-12-10T01:46:52;99066.06;;;9.71;84.66
54900;BME280;40801;41.924;25.562;2022-12-10T01:51:47;99058.53;;;9.82;83.78
54900;BME280;40801;41.924;25.562;2022-12-10T01:54:19;99059.63;;;9.81;83.78
54900;BME280;40801;41.924;25.562;2022-12-10T01:56:56;99050.28;;;9.78;83.83
54900;BME280;40801;41.924;25.562;2022-12-10T01:59:23;99047.84;;;9.68;84.71
54900;BME280;40801;41.924;25.562;2022-12-10T02:02:02;99048.94;;;9.67;84.99
54900;BME280;40801;41.924;25.562;2022-12-10T02:13:03;99027.31;;;9.81;84.54
54900;BME280;40801;41.924;25.562;2022-12-10T02:15:32;99031.03;;;9.85;84.59
54900;BME280;40801;41.924;25.562;2022-12-10T02:18:21;99029.44;;;9.84;85.04
54900;BME280;40801;41.924;25.562;2022-12-10T02:20:58;99005.69;;;9.86;84.64
54900;BME280;40801;41.924;25.562;2022-12-10T02:23:46;99006.66;;;9.90;84.33
54900;BME280;40801;41.924;25.562;2022-12-10T02:26:27;99000.47;;;9.89;84.19
54900;BME280;40801;41.924;25.562;2022-12-10T02:31:42;99005.69;;;9.86;85.03
54900;BME280;40801;41.924;25.562;2022-12-10T02:34:10;99007.56;;;9.85;85.08
54900;BME280;40801;41.924;25.562;2022-12-10T02:36:39;98999.34;;;9.90;84.94
54900;BME280;40801;41.924;25.562;2022-12-10T02:39:09;99000.16;;;9.91;84.83
54900;BME280;40801;41.924;25.562;2022-12-10T02:41:39;98996.22;;;9.97;84.58
54900;BME280;40801;41.924;25.562;2022-12-10T02:44:09;98992.41;;;9.98;84.58
54900;BME280;40801;41.924;25.562;2022-12-10T02:46:37;98997.81;;;9.98;84.65
54900;BME280;40801;41.924;25.562;2022-12-10T02:49:06;98987.97;;;9.93;84.50
54900;BME280;40801;41.924;25.562;2022-12-10T02:51:32;99009.69;;;9.97;84.71
54900;BME280;40801;41.924;25.562;2022-12-10T02:54:03;99005.72;;;9.94;84.71
54900;BME280;40801;41.924;25.562;2022-12-10T02:56:35;99005.41;;;9.96;84.67
54900;BME280;40801;41.924;25.562;2022-12-10T03:05:35;99000.16;;;9.91;84.50
54900;BME280;40801;41.924;25.562;2022-12-10T03:08:10;99013.94;;;9.89;84.97
54900;BME280;40801;41.924;25.562;2022-12-10T03:10:50;99013.94;;;9.89;85.14
54900;BME280;40801;41.924;25.562;2022-12-10T03:13:21;99012.56;;;9.78;85.61
54900;BME280;40801;41.924;25.562;2022-12-10T03:15:49;99014.78;;;9.76;85.57
54900;BME280;40801;41.924;25.562;2022-12-10T03:18:19;99018.75;;;9.79;85.11
54900;BME280;40801;41.924;25.562;2022-12-10T03:20:48;99005.09;;;9.67;84.99
54900;BME280;40801;41.924;25.562;2022-12-10T03:23:17;99008.56;;;9.67;85.04
54900;BME280;40801;41.924;25.562;2022-12-10T03:25:44;99009.38;;;9.45;86.58
54900;BME280;40801;41.924;25.562;2022-12-10T03:28:11;98995.13;;;9.45;86.79
54900;BME280;40801;41.924;25.562;2022-12-10T03:30:38;98982.13;;;9.47;86.42
54900;BME280;40801;41.924;25.562;2022-12-10T03:33:04;98989.06;;;9.61;85.17
54900;BME280;40801;41.924;25.562;2022-12-10T03:35:31;98997.31;;;9.65;85.13
54900;BME280;40801;41.924;25.562;2022-12-10T03:37:57;99004.84;;;9.54;85.84
54900;BME280;40801;41.924;25.562;2022-12-10T03:40:24;99001.84;;;9.56;85.72
54900;BME280;40801;41.924;25.562;2022-12-10T03:42:50;99006.44;;;9.55;85.90
54900;BME280;40801;41.924;25.562;2022-12-10T03:45:15;99006.44;;;9.55;86.32
54900;BME280;40801;41.924;25.562;2022-12-10T03:47:41;99012.97;;;9.63;85.88
54900;BME280;40801;41.924;25.562;2022-12-10T03:50:08;98999.81;;;9.61;85.96
54900;BME280;40801;41.924;25.562;2022-12-10T03:52:33;98991.50;;;9.49;86.29
54900;BME280;40801;41.924;25.562;2022-12-10T03:54:59;98980.88;;;9.44;86.38
54900;BME280;40801;41.924;25.562;2022-12-10T03:57:25;98998.72;;;9.40;86.80
54900;BME280;40801;41.924;25.562;2022-12-10T03:59:50;99002.69;;;9.43;87.07
54900;BME280;40801;41.924;25.562;2022-12-10T04:02:16;99007.59;;;9.41;86.81
54900;BME280;40801;41.924;25.562;2022-12-10T04:04:41;99000.97;;;9.47;86.86
54900;BME280;40801;41.924;25.562;2022-12-10T04:07:07;99000.06;;;9.51;86.50
54900;BME280;40801;41.924;25.562;2022-12-10T04:09:32;98983.31;;;9.54;86.21
54900;BME280;40801;41.924;25.562;2022-12-10T04:11:59;98988.50;;;9.51;86.11
54900;BME280;40801;41.924;25.562;2022-12-10T04:14:25;98983.31;;;9.54;85.92
54900;BME280;40801;41.924;25.562;2022-12-10T04:17:09;98973.34;;;9.55;85.78
54900;BME280;40801;41.924;25.562;2022-12-10T04:19:35;98971.00;;;9.62;85.64
54900;BME280;40801;41.924;25.562;2022-12-10T04:22:00;98978.47;;;9.65;85.41
54900;BME280;40801;41.924;25.562;2022-12-10T04:24:44;98982.41;;;9.59;85.23
54900;BME280;40801;41.924;25.562;2022-12-10T04:27:36;98983.81;;;9.56;85.33
54900;BME280;40801;41.924;25.562;2022-12-10T04:30:05;98982.63;;;9.49;85.58
54900;BME280;40801;41.924;25.562;2022-12-10T04:32:31;98984.69;;;9.52;85.81
54900;BME280;40801;41.924;25.562;2022-12-10T04:34:57;98983.81;;;9.56;85.24
54900;BME280;40801;41.924;25.562;2022-12-10T04:37:23;98987.28;;;9.57;85.50
54900;BME280;40801;41.924;25.562;2022-12-10T04:39:49;98982.41;;;9.59;85.55
54900;BME280;40801;41.924;25.562;2022-12-10T04:42:16;98972.91;;;9.61;85.54
54900;BME280;40801;41.924;25.562;2022-12-10T04:44:41;98982.94;;;9.47;85.50
54900;BME280;40801;41.924;25.562;2022-12-10T04:47:08;98989.78;;;9.53;85.48
54900;BME280;40801;41.924;25.562;2022-12-10T04:49:33;98982.81;;;9.52;85.09
54900;BME280;40801;41.924;25.562;2022-12-10T04:51:59;98983.88;;;9.43;85.55
54900;BME280;40801;41.924;25.562;2022-12-10T04:54:25;98987.84;;;9.45;85.65
54900;BME280;40801;41.924;25.562;2022-12-10T04:56:50;98982.84;;;9.30;86.06
54900;BME280;40801;41.924;25.562;2022-12-10T04:59:16;98987.53;;;9.24;86.75
54900;BME280;40801;41.924;25.562;2022-12-10T05:01:42;98990.22;;;9.24;86.56
54900;BME280;40801;41.924;25.562;2022-12-10T05:04:10;99001.88;;;9.20;87.35
54900;BME280;40801;41.924;25.562;2022-12-10T05:06:36;98998.59;;;9.23;87.30
54900;BME280;40801;41.924;25.562;2022-12-10T05:09:03;98999.06;;;9.25;86.84
54900;BME280;40801;41.924;25.562;2022-12-10T05:11:29;98995.84;;;9.37;85.96
54900;BME280;40801;41.924;25.562;2022-12-10T05:13:56;98998.41;;;9.42;86.44
54900;BME280;40801;41.924;25.562;2022-12-10T05:16:23;98997.81;;;9.45;85.50
54900;BME280;40801;41.924;25.562;2022-12-10T05:18:49;98991.56;;;9.36;85.99
54900;BME280;40801;41.924;25.562;2022-12-10T05:21:18;98994.44;;;9.39;86.29
54900;BME280;40801;41.924;25.562;2022-12-10T05:23:45;98996.53;;;9.42;85.95
54900;BME280;40801;41.924;25.562;2022-12-10T05:26:16;98992.41;;;9.45;85.62
54900;BME280;40801;41.924;25.562;2022-12-10T05:28:45;98994.31;;;9.44;85.74
54900;BME280;40801;41.924;25.562;2022-12-10T05:31:12;98991.00;;;9.47;86.15
54900;BME280;40801;41.924;25.562;2022-12-10T05:33:38;98986.72;;;9.46;85.97
54900;BME280;40801;41.924;25.562;2022-12-10T05:36:04;98994.69;;;9.51;85.37
54900;BME280;40801;41.924;25.562;2022-12-10T05:38:31;98988.41;;;9.56;85.58
54900;BME280;40801;41.924;25.562;2022-12-10T05:41:05;98986.81;;;9.55;85.45
54900;BME280;40801;41.924;25.562;2022-12-10T05:43:31;98982.00;;;9.52;85.39
54900;BME280;40801;41.924;25.562;2022-12-10T05:46:01;98978.13;;;9.58;85.46
54900;BME280;40801;41.924;25.562;2022-12-10T05:48:27;98971.94;;;9.57;85.11
54900;BME280;40801;41.924;25.562;2022-12-10T05:50:53;98986.50;;;9.56;85.09
54900;BME280;40801;41.924;25.562;2022-12-10T05:53:18;98999.66;;;9.58;85.12
54900;BME280;40801;41.924;25.562;2022-12-10T05:55:44;99002.03;;;9.59;85.02
54900;BME280;40801;41.924;25.562;2022-12-10T05:58:10;98990.09;;;9.52;85.12
54900;BME280;40801;41.924;25.562;2022-12-10T06:00:38;98984.69;;;9.52;85.09
54900;BME280;40801;41.924;25.562;2022-12-10T06:03:04;98978.91;;;9.58;84.92
54900;BME280;40801;41.924;25.562;2022-12-10T06:05:29;98976.22;;;9.58;85.28
54900;BME280;40801;41.924;25.562;2022-12-10T06:07:54;98980.97;;;9.61;85.22
54900;BME280;40801;41.924;25.562;2022-12-10T06:10:20;98992.72;;;9.66;85.27
54900;BME280;40801;41.924;25.562;2022-12-10T06:12:45;99000.66;;;9.71;84.83
54900;BME280;40801;41.924;25.562;2022-12-10T06:15:11;98995.44;;;9.74;84.83
54900;BME280;40801;41.924;25.562;2022-12-10T06:17:36;98995.44;;;9.74;84.68
54900;BME280;40801;41.924;25.562;2022-12-10T06:20:02;98988.97;;;9.75;84.31
54900;BME280;40801;41.924;25.562;2022-12-10T06:22:28;98991.22;;;9.82;84.78
54900;BME280;40801;41.924;25.562;2022-12-10T06:24:53;98982.53;;;9.85;84.65
54900;BME280;40801;41.924;25.562;2022-12-10T06:27:19;98973.22;;;9.91;84.15
54900;BME280;40801;41.924;25.562;2022-12-10T06:29:44;98963.72;;;9.93;84.44
54900;BME280;40801;41.924;25.562;2022-12-10T06:32:10;98961.38;;;10.01;83.71
54900;BME280;40801;41.924;25.562;2022-12-10T06:34:35;98980.72;;;10.11;83.56
54900;BME280;40801;41.924;25.562;2022-12-10T06:37:01;98978.09;;;10.20;83.49
54900;BME280;40801;41.924;25.562;2022-12-10T06:39:26;98990.97;;;10.23;83.68
54900;BME280;40801;41.924;25.562;2022-12-10T06:41:51;98979.25;;;10.28;83.00
54900;BME280;40801;41.924;25.562;2022-12-10T06:44:17;98987.41;;;10.45;82.77
54900;BME280;40801;41.924;25.562;2022-12-10T06:46:42;98992.81;;;10.53;82.30
54900;BME280;40801;41.924;25.562;2022-12-10T06:49:08;98980.75;;;10.60;81.96
54900;BME280;40801;41.924;25.562;2022-12-10T06:51:33;98977.88;;;10.47;81.73
54900;BME280;40801;41.924;25.562;2022-12-10T06:53:59;98978.84;;;10.51;81.70
54900;BME280;40801;41.924;25.562;2022-12-10T06:56:25;98994.41;;;10.54;81.75
54900;BME280;40801;41.924;25.562;2022-12-10T06:58:51;98982.34;;;10.52;81.39
54900;BME280;40801;41.924;25.562;2022-12-10T07:01:20;98985.34;;;10.59;81.78
54900;BME280;40801;41.924;25.562;2022-12-10T07:03:50;98971.28;;;10.71;81.23
54900;BME280;40801;41.924;25.562;2022-12-10T07:06:17;98978.91;;;10.77;80.96
54900;BME280;40801;41.924;25.562;2022-12-10T07:08:43;98972.88;;;10.80;80.53
54900;BME280;40801;41.924;25.562;2022-12-10T07:11:13;98969.69;;;10.78;80.32
54900;BME280;40801;41.924;25.562;2022-12-10T07:13:39;98972.06;;;10.80;80.61
54900;BME280;40801;41.924;25.562;2022-12-10T07:18:44;98963.19;;;10.79;80.39
54900;BME280;40801;41.924;25.562;2022-12-10T07:21:21;98967.31;;;10.85;79.90
54900;BME280;40801;41.924;25.562;2022-12-10T07:23:48;98969.72;;;11.04;79.93
54900;BME280;40801;41.924;25.562;2022-12-10T07:26:14;98969.69;;;11.13;79.93
54900;BME280;40801;41.924;25.562;2022-12-10T07:28:40;98979.69;;;11.21;79.18
54900;BME280;40801;41.924;25.562;2022-12-10T07:31:07;98966.66;;;11.23;79.45
54900;BME280;40801;41.924;25.562;2022-12-10T07:33:33;98964.28;;;11.39;79.19
54900;BME280;40801;41.924;25.562;2022-12-10T07:35:59;98952.34;;;11.48;79.22
54900;BME280;40801;41.924;25.562;2022-12-10T07:38:25;98949.94;;;11.56;78.72
54900;BME280;40801;41.924;25.562;2022-12-10T07:40:51;98937.41;;;11.60;78.48
54900;BME280;40801;41.924;25.562;2022-12-10T07:43:17;98940.53;;;11.70;78.26
54900;BME280;40801;41.924;25.562;2022-12-10T07:45:43;98938.13;;;11.77;78.43
54900;BME280;40801;41.924;25.562;2022-12-10T07:48:09;98928.94;;;11.87;78.31
54900;BME280;40801;41.924;25.562;2022-12-10T07:50:35;98926.50;;;11.94;78.27
54900;BME280;40801;41.924;25.562;2022-12-10T07:53:00;98923.44;;;12.04;78.18
54900;BME280;40801;41.924;25.562;2022-12-10T07:55:26;98930.06;;;12.16;78.36
54900;BME280;40801;41.924;25.562;2022-12-10T07:57:51;98925.22;;;12.30;78.51
54900;BME280;40801;41.924;25.562;2022-12-10T08:00:17;98923.56;;;12.37;78.72
54900;BME280;40801;41.924;25.562;2022-12-10T08:02:42;98916.34;;;12.50;78.30
54900;BME280;40801;41.924;25.562;2022-12-10T08:05:08;98909.88;;;12.63;77.57
54900;BME280;40801;41.924;25.562;2022-12-10T08:07:34;98911.13;;;12.66;77.28
54900;BME280;40801;41.924;25.562;2022-12-10T08:09:59;98908.97;;;12.80;76.39
54900;BME280;40801;41.924;25.562;2022-12-10T08:12:25;98907.44;;;12.91;76.55
54900;BME280;40801;41.924;25.562;2022-12-10T08:14:50;98904.13;;;13.07;76.38
54900;BME280;40801;41.924;25.562;2022-12-10T08:17:15;98898.06;;;13.43;75.56
54900;BME280;40801;41.924;25.562;2022-12-10T08:19:41;98899.69;;;13.80;75.25
54900;BME280;40801;41.924;25.562;2022-12-10T08:22:06;98887.19;;;13.88;74.37
54900;BME280;40801;41.924;25.562;2022-12-10T08:24:32;98896.09;;;14.01;74.33
54900;BME280;40801;41.924;25.562;2022-12-10T08:26:57;98905.38;;;14.00;73.96
54900;BME280;40801;41.924;25.562;2022-12-10T08:29:23;98905.94;;;14.05;73.70
54900;BME280;40801;41.924;25.562;2022-12-10T08:31:48;98914.06;;;14.05;73.36
54900;BME280;40801;41.924;25.562;2022-12-10T08:34:16;98928.06;;;14.07;72.58
54900;BME280;40801;41.924;25.562;2022-12-10T08:36:43;98919.25;;;13.98;72.27
54900;BME280;40801;41.924;25.562;2022-12-10T08:39:09;98921.94;;;13.86;73.11
54900;BME280;40801;41.924;25.562;2022-12-10T08:41:36;98925.50;;;13.53;74.53
54900;BME280;40801;41.924;25.562;2022-12-10T08:44:01;98925.84;;;13.52;74.50
54900;BME280;40801;41.924;25.562;2022-12-10T08:46:27;98932.25;;;13.47;75.05
54900;BME280;40801;41.924;25.562;2022-12-10T08:48:54;98916.31;;;13.33;75.46
54900;BME280;40801;41.924;25.562;2022-12-10T08:51:19;98920.75;;;13.38;75.44
54900;BME280;40801;41.924;25.562;2022-12-10T08:53:45;98923.00;;;13.36;75.88
54900;BME280;40801;41.924;25.562;2022-12-10T08:56:11;98918.03;;;13.38;75.27
54900;BME280;40801;41.924;25.562;2022-12-10T08:58:37;98914.00;;;13.56;74.99
54900;BME280;40801;41.924;25.562;2022-12-10T09:01:11;98911.72;;;13.46;74.89
54900;BME280;40801;41.924;25.562;2022-12-10T09:03:38;98910.75;;;13.63;74.65
54900;BME280;40801;41.924;25.562;2022-12-10T09:06:06;98904.06;;;13.48;74.23
54900;BME280;40801;41.924;25.562;2022-12-10T09:08:32;98896.66;;;13.24;74.82
54900;BME280;40801;41.924;25.562;2022-12-10T09:10:58;98895.38;;;13.55;74.54
54900;BME280;40801;41.924;25.562;2022-12-10T09:13:23;98899.44;;;13.49;74.24
54900;BME280;40801;41.924;25.562;2022-12-10T09:15:52;98888.94;;;13.47;73.97
54900;BME280;40801;41.924;25.562;2022-12-10T09:18:18;98885.66;;;13.54;73.75
54900;BME280;40801;41.924;25.562;2022-12-10T09:20:43;98888.84;;;13.68;73.75
54900;BME280;40801;41.924;25.562;2022-12-10T09:23:09;98874.75;;;13.75;73.56
54900;BME280;40801;41.924;25.562;2022-12-10T09:25:34;98872.81;;;13.75;73.34
54900;BME280;40801;41.924;25.562;2022-12-10T09:28:00;98864.69;;;13.75;73.18
54900;BME280;40801;41.924;25.562;2022-12-10T09:30:25;98870.91;;;13.63;73.54
54900;BME280;40801;41.924;25.562;2022-12-10T09:32:51;98858.25;;;13.80;73.00
54900;BME280;40801;41.924;25.562;2022-12-10T09:35:16;98849.47;;;13.95;73.00
54900;BME280;40801;41.924;25.562;2022-12-10T09:37:42;98849.66;;;14.14;72.40
54900;BME280;40801;41.924;25.562;2022-12-10T09:40:14;98842.66;;;14.13;72.04
54900;BME280;40801;41.924;25.562;2022-12-10T09:42:56;98840.72;;;14.26;71.17
54900;BME280;40801;41.924;25.562;2022-12-10T09:48:25;98828.59;;;14.36;70.24
54900;BME280;40801;41.924;25.562;2022-12-10T09:51:09;98824.41;;;14.50;70.76
54900;BME280;40801;41.924;25.562;2022-12-10T09:53:36;98810.47;;;14.64;70.69
54900;BME280;40801;41.924;25.562;2022-12-10T09:56:04;98793.09;;;14.81;70.25
54900;BME280;40801;41.924;25.562;2022-12-10T09:58:30;98791.66;;;15.15;69.72
54900;BME280;40801;41.924;25.562;2022-12-10T10:01:01;98796.69;;;15.01;68.50
54900;BME280;40801;41.924;25.562;2022-12-10T10:03:31;98789.00;;;15.03;69.47
54900;BME280;40801;41.924;25.562;2022-12-10T10:05:57;98782.28;;;15.12;69.12
54900;BME280;40801;41.924;25.562;2022-12-10T10:08:41;98785.69;;;15.25;67.60
54900;BME280;40801;41.924;25.562;2022-12-10T10:11:22;98773.44;;;15.47;68.10
54900;BME280;40801;41.924;25.562;2022-12-10T10:13:58;98767.59;;;15.96;68.17
54900;BME280;40801;41.924;25.562;2022-12-10T10:16:33;98762.00;;;16.24;66.27
54900;BME280;40801;41.924;25.562;2022-12-10T10:19:01;98765.97;;;16.10;66.70
54900;BME280;40801;41.924;25.562;2022-12-10T10:21:28;98764.53;;;16.17;66.44
54900;BME280;40801;41.924;25.562;2022-12-10T10:23:55;98757.31;;;16.05;66.39
54900;BME280;40801;41.924;25.562;2022-12-10T10:26:24;98749.94;;;16.05;66.52
54900;BME280;40801;41.924;25.562;2022-12-10T10:28:56;98745.44;;;16.32;66.16
54900;BME280;40801;41.924;25.562;2022-12-10T10:31:25;98741.06;;;16.66;65.53
54900;BME280;40801;41.924;25.562;2022-12-10T10:33:57;98735.75;;;16.73;64.10
54900;BME280;40801;41.924;25.562;2022-12-10T10:36:35;98735.34;;;16.71;64.29
54900;BME280;40801;41.924;25.562;2022-12-10T10:41:41;98716.19;;;16.87;64.30
54900;BME280;40801;41.924;25.562;2022-12-10T10:44:15;98712.66;;;16.87;63.38
54900;BME280;40801;41.924;25.562;2022-12-10T10:46:42;98714.53;;;16.83;63.59
54900;BME280;40801;41.924;25.562;2022-12-10T10:49:30;98715.44;;;16.90;62.67
54900;BME280;40801;41.924;25.562;2022-12-10T10:52:15;98719.16;;;16.79;62.64
54900;BME280;40801;41.924;25.562;2022-12-10T10:54:43;98717.56;;;17.00;64.13
54900;BME280;40801;41.924;25.562;2022-12-10T10:57:12;98713.31;;;17.03;63.88
54900;BME280;40801;41.924;25.562;2022-12-10T10:59:40;98708.66;;;17.03;63.71
54900;BME280;40801;41.924;25.562;2022-12-10T11:02:26;98709.38;;;17.23;62.07
54900;BME280;40801;41.924;25.562;2022-12-10T11:04:55;98703.09;;;17.19;62.85
54900;BME280;40801;41.924;25.562;2022-12-10T11:09:59;98699.66;;;16.99;63.59
54900;BME280;40801;41.924;25.562;2022-12-10T11:14:55;98701.09;;;16.70;63.75
54900;BME280;40801;41.924;25.562;2022-12-10T11:17:24;98707.88;;;16.61;63.06
54900;BME280;40801;41.924;25.562;2022-12-10T11:20:00;98690.09;;;16.86;62.91
54900;BME280;40801;41.924;25.562;2022-12-10T11:22:29;98689.59;;;17.03;62.70
54900;BME280;40801;41.924;25.562;2022-12-10T11:24:56;98685.84;;;17.12;62.62
54900;BME280;40801;41.924;25.562;2022-12-10T11:30:11;98680.81;;;16.68;61.91
54900;BME280;40801;41.924;25.562;2022-12-10T11:33:05;98665.91;;;16.62;62.97
54900;BME280;40801;41.924;25.562;2022-12-10T11:38:30;98654.41;;;16.49;63.91
54900;BME280;40801;41.924;25.562;2022-12-10T11:44:01;98631.50;;;16.50;63.94
54900;BME280;40801;41.924;25.562;2022-12-10T11:46:44;98633.66;;;16.64;64.03
54900;BME280;40801;41.924;25.562;2022-12-10T11:55:02;98608.09;;;16.91;64.28
54900;BME280;40801;41.924;25.562;2022-12-10T12:00:20;98601.69;;;17.63;63.48
54900;BME280;40801;41.924;25.562;2022-12-10T12:03:12;98600.88;;;17.89;61.88
54900;BME280;40801;41.924;25.562;2022-12-10T12:08:33;98589.72;;;18.42;62.18
54900;BME280;40801;41.924;25.562;2022-12-10T12:12:05;98589.59;;;18.68;61.04
54900;BME280;40801;41.924;25.562;2022-12-10T12:14:13;98590.06;;;19.36;59.93
54900;BME280;40801;41.924;25.562;2022-12-10T12:17:11;98588.66;;;19.60;58.63
54900;BME280;40801;41.924;25.562;2022-12-10T12:19:40;98593.84;;;19.86;58.39
54900;BME280;40801;41.924;25.562;2022-12-10T12:22:19;98597.34;;;19.79;57.17
54900;BME280;40801;41.924;25.562;2022-12-10T12:24:47;98584.44;;;19.80;58.23
54900;BME280;40801;41.924;25.562;2022-12-10T12:27:41;98586.81;;;19.92;58.35
54900;BME280;40801;41.924;25.562;2022-12-10T12:30:14;98585.34;;;20.23;57.89
54900;BME280;40801;41.924;25.562;2022-12-10T12:32:58;98579.94;;;20.45;55.89
54900;BME280;40801;41.924;25.562;2022-12-10T12:35:56;98575.25;;;20.49;56.11
54900;BME280;40801;41.924;25.562;2022-12-10T12:38:27;98578.78;;;20.60;56.92
54900;BME280;40801;41.924;25.562;2022-12-10T12:41:24;98579.56;;;20.67;55.49
54900;BME280;40801;41.924;25.562;2022-12-10T12:46:44;98582.31;;;20.64;54.32
54900;BME280;40801;41.924;25.562;2022-12-10T12:49:20;98576.03;;;20.74;53.16
54900;BME280;40801;41.924;25.562;2022-12-10T12:52:02;98572.53;;;20.56;54.07
54900;BME280;40801;41.924;25.562;2022-12-10T12:54:32;98571.31;;;20.50;54.46
54900;BME280;40801;41.924;25.562;2022-12-10T12:57:26;98563.09;;;20.32;54.22
54900;BME280;40801;41.924;25.562;2022-12-10T13:00:20;98563.06;;;20.25;54.77
54900;BME280;40801;41.924;25.562;2022-12-10T13:05:30;98566.06;;;19.77;55.61
54900;BME280;40801;41.924;25.562;2022-12-10T13:08:15;98569.13;;;19.58;56.17
54900;BME280;40801;41.924;25.562;2022-12-10T13:10:59;98567.88;;;19.48;56.52
54900;BME280;40801;41.924;25.562;2022-12-10T13:13:30;98565.50;;;19.39;56.80
54900;BME280;40801;41.924;25.562;2022-12-10T13:21:58;98565.66;;;19.06;57.05
54900;BME280;40801;41.924;25.562;2022-12-10T13:32:20;98572.06;;;18.73;58.12
54900;BME280;40801;41.924;25.562;2022-12-10T13:34:46;98564.22;;;18.64;58.40
54900;BME280;40801;41.924;25.562;2022-12-10T13:37:27;98580.44;;;18.50;58.80
54900;BME280;40801;41.924;25.562;2022-12-10T13:42:30;98576.50;;;18.44;58.36
54900;BME280;40801;41.924;25.562;2022-12-10T13:48:15;98569.09;;;18.44;58.64
54900;BME280;40801;41.924;25.562;2022-12-10T14:06:18;98551.19;;;18.06;60.03
54900;BME280;40801;41.924;25.562;2022-12-10T14:11:59;98544.38;;;17.89;60.73
54900;BME280;40801;41.924;25.562;2022-12-10T14:14:33;98548.53;;;17.76;61.52
54900;BME280;40801;41.924;25.562;2022-12-10T14:17:09;98550.47;;;17.76;61.58
54900;BME280;40801;41.924;25.562;2022-12-10T14:19:38;98552.38;;;17.72;61.75
54900;BME280;40801;41.924;25.562;2022-12-10T14:22:05;98553.91;;;17.69;61.90
54900;BME280;40801;41.924;25.562;2022-12-10T14:24:33;98551.03;;;17.62;62.40
54900;BME280;40801;41.924;25.562;2022-12-10T14:27:11;98540.09;;;17.58;62.50
54900;BME280;40801;41.924;25.562;2022-12-10T14:29:44;98541.91;;;17.47;62.88
54900;BME280;40801;41.924;25.562;2022-12-10T14:32:21;98541.41;;;17.38;63.25
54900;BME280;40801;41.924;25.562;2022-12-10T14:34:54;98540.22;;;17.36;63.41
54900;BME280;40801;41.924;25.562;2022-12-10T14:37:24;98530.03;;;17.32;63.46
54900;BME280;40801;41.924;25.562;2022-12-10T14:39:50;98529.63;;;17.30;63.52
54900;BME280;40801;41.924;25.562;2022-12-10T14:42:16;98524.88;;;17.24;63.49
54900;BME280;40801;41.924;25.562;2022-12-10T14:44:43;98520.06;;;17.14;63.97
54900;BME280;40801;41.924;25.562;2022-12-10T14:47:15;98520.03;;;17.10;64.20